createdAt,value
2019-06-10T00:01:13.410Z,15.13
2019-06-10T00:01:40.872Z,15.19
2019-06-10T00:02:41.411Z,15.18
2019-06-10T00:03:42.129Z,15.28
2019-06-10T00:04:41.550Z,15.19
2019-06-10T00:05:41.502Z,15.19
2019-06-10T00:06:41.542Z,15.13
2019-06-10T00:07:41.080Z,15.17
2019-06-10T00:08:41.201Z,15.14
2019-06-10T00:09:40.729Z,15.21
2019-06-10T00:10:42.026Z,15.10
2019-06-10T00:11:41.113Z,15.10
2019-06-10T00:12:41.843Z,15.06
2019-06-10T00:13:41.496Z,15.04
2019-06-10T00:14:41.830Z,15.11
2019-06-10T00:15:40.958Z,15.04
2019-06-10T00:16:41.568Z,15.13
2019-06-10T00:17:53.098Z,15.00
2019-06-10T00:18:43.052Z,15.04
2019-06-10T00:19:40.978Z,14.99
2019-06-10T00:20:40.850Z,15.00
2019-06-10T00:21:41.360Z,15.00
2019-06-10T00:22:40.940Z,14.88
2019-06-10T00:23:41.299Z,14.91
2019-06-10T00:24:40.946Z,14.95
2019-06-10T00:25:41.511Z,14.94
2019-06-10T00:26:41.352Z,14.82
2019-06-10T00:27:41.878Z,14.81
2019-06-10T00:28:40.668Z,14.70
2019-06-10T00:29:40.902Z,14.70
2019-06-10T00:30:41.115Z,14.69
2019-06-10T00:31:41.657Z,14.60
2019-06-10T00:32:41.218Z,14.69
2019-06-10T00:33:41.418Z,14.60
2019-06-10T00:34:41.713Z,14.63
2019-06-10T00:35:41.197Z,14.60
2019-06-10T00:36:41.403Z,14.51
2019-06-10T00:37:41.726Z,14.60
2019-06-10T00:38:41.169Z,14.60
2019-06-10T00:39:40.858Z,14.66
2019-06-10T00:40:41.498Z,14.63
2019-06-10T00:41:39.517Z,14.68
2019-06-10T00:42:41.632Z,14.69
2019-06-10T00:43:41.170Z,14.66
2019-06-10T00:44:41.491Z,14.62
2019-06-10T00:45:41.002Z,14.66
2019-06-10T00:46:40.841Z,14.62
2019-06-10T00:47:41.294Z,14.73
2019-06-10T00:48:40.996Z,14.70
2019-06-10T00:49:40.943Z,14.66
2019-06-10T00:50:41.380Z,14.65
2019-06-10T00:51:41.333Z,14.63
2019-06-10T00:52:42.217Z,14.63
2019-06-10T00:53:39.325Z,14.60
2019-06-10T00:54:41.584Z,14.63
2019-06-10T00:55:41.489Z,14.50
2019-06-10T00:56:41.237Z,14.51
2019-06-10T00:57:41.698Z,14.62
2019-06-10T00:58:40.851Z,14.58
2019-06-10T00:59:41.243Z,14.63
2019-06-10T01:00:41.160Z,14.63
2019-06-10T01:01:41.376Z,14.69
2019-06-10T01:02:41.077Z,14.78
2019-06-10T01:03:41.448Z,14.78
2019-06-10T01:04:40.766Z,14.78
2019-06-10T01:05:41.741Z,14.70
2019-06-10T01:06:39.110Z,14.62
2019-06-10T01:07:41.220Z,14.60
2019-06-10T01:08:40.541Z,14.58
2019-06-10T01:09:41.164Z,14.63
2019-06-10T01:10:39.048Z,14.58
2019-06-10T01:11:41.052Z,14.48
2019-06-10T01:12:40.716Z,14.57
2019-06-10T01:13:41.252Z,14.48
2019-06-10T01:14:41.035Z,14.62
2019-06-10T01:15:41.657Z,14.70
2019-06-10T01:16:41.029Z,14.69
2019-06-10T01:17:38.934Z,14.65
2019-06-10T01:18:41.445Z,14.75
2019-06-10T01:19:41.374Z,14.78
2019-06-10T01:20:41.033Z,14.84
2019-06-10T01:21:38.866Z,14.85
2019-06-10T01:22:40.906Z,14.86
2019-06-10T01:23:38.835Z,14.89
2019-06-10T01:24:40.729Z,14.84
2019-06-10T01:25:38.800Z,14.78
2019-06-10T01:26:41.057Z,14.72
2019-06-10T01:27:40.885Z,14.70
2019-06-10T01:28:40.900Z,14.66
2019-06-10T01:29:38.735Z,14.60
2019-06-10T01:30:41.013Z,14.63
2019-06-10T01:31:38.703Z,14.62
2019-06-10T01:32:38.687Z,14.60
2019-06-10T01:33:40.956Z,14.50
2019-06-10T01:34:38.655Z,14.57
2019-06-10T01:35:41.178Z,14.62
2019-06-10T01:36:40.512Z,14.68
2019-06-10T01:37:38.604Z,14.70
2019-06-10T01:38:40.813Z,14.63
2019-06-10T01:39:38.576Z,14.63
2019-06-10T01:40:38.558Z,14.66
2019-06-10T01:41:40.796Z,14.63
2019-06-10T01:42:38.527Z,14.69
2019-06-10T01:43:40.653Z,14.65
2019-06-10T01:44:38.492Z,14.62
2019-06-10T01:45:38.476Z,14.58
2019-06-10T01:46:40.916Z,14.58
2019-06-10T01:47:38.443Z,14.48
2019-06-10T01:48:45.001Z,14.54
2019-06-10T01:49:38.432Z,14.48
2019-06-10T01:50:40.509Z,14.51
2019-06-10T01:51:38.902Z,14.55
2019-06-10T01:52:38.362Z,14.50
2019-06-10T01:53:38.344Z,14.55
2019-06-10T01:54:38.333Z,14.58
2019-06-10T01:55:38.313Z,14.51
2019-06-10T01:56:40.715Z,14.50
2019-06-10T01:57:38.283Z,14.39
2019-06-10T01:58:40.537Z,14.48
2019-06-10T01:59:38.248Z,14.40
2019-06-10T02:00:38.235Z,14.39
2019-06-10T02:01:38.237Z,14.51
2019-06-10T02:02:38.215Z,14.55
2019-06-10T02:03:38.182Z,14.48
2019-06-10T02:04:41.001Z,14.39
2019-06-10T02:05:38.150Z,14.36
2019-06-10T02:06:40.501Z,14.37
2019-06-10T02:07:38.120Z,14.36
2019-06-10T02:08:38.105Z,14.26
2019-06-10T02:09:38.084Z,14.21
2019-06-10T02:10:38.070Z,14.25
2019-06-10T02:11:38.118Z,14.27
2019-06-10T02:12:38.039Z,14.33
2019-06-10T02:13:38.019Z,14.17
2019-06-10T02:14:38.005Z,14.18
2019-06-10T02:15:37.988Z,14.14
2019-06-10T02:16:37.971Z,14.12
2019-06-10T02:17:37.953Z,14.15
2019-06-10T02:18:37.939Z,14.17
2019-06-10T02:19:37.921Z,14.08
2019-06-10T02:20:37.904Z,14.07
2019-06-10T02:21:37.937Z,14.10
2019-06-10T02:22:37.872Z,14.08
2019-06-10T02:23:37.854Z,14.08
2019-06-10T02:24:37.839Z,14.11
2019-06-10T02:25:37.822Z,14.05
2019-06-10T02:26:37.806Z,14.05
2019-06-10T02:27:37.794Z,14.07
2019-06-10T02:28:37.775Z,14.08
2019-06-10T02:29:37.755Z,14.14
2019-06-10T02:30:46.186Z,14.08
2019-06-10T02:31:38.029Z,14.08
2019-06-10T02:32:38.169Z,14.07
2019-06-10T02:33:37.690Z,13.92
2019-06-10T02:34:50.645Z,13.93
2019-06-10T02:35:43.296Z,13.90
2019-06-10T02:36:37.643Z,13.92
2019-06-10T02:37:38.319Z,13.86
2019-06-10T02:38:39.574Z,13.78
2019-06-10T02:39:38.902Z,13.82
2019-06-10T02:40:37.574Z,13.77
2019-06-10T02:41:37.558Z,13.81
2019-06-10T02:42:37.541Z,13.92
2019-06-10T02:43:38.159Z,13.86
2019-06-10T02:44:37.904Z,13.74
2019-06-10T02:45:37.839Z,13.89
2019-06-10T02:46:37.474Z,13.87
2019-06-10T02:47:38.387Z,13.77
2019-06-10T02:48:37.440Z,13.77
2019-06-10T02:49:52.646Z,13.79
2019-06-10T02:50:37.412Z,13.77
2019-06-10T02:51:37.392Z,13.72
2019-06-10T02:52:38.674Z,13.84
2019-06-10T02:53:37.653Z,13.72
2019-06-10T02:54:37.341Z,13.87
2019-06-10T02:55:37.324Z,13.77
2019-06-10T02:56:37.309Z,13.90
2019-06-10T02:57:40.318Z,13.82
2019-06-10T02:58:39.903Z,13.75
2019-06-10T02:59:37.258Z,13.86
2019-06-10T03:00:47.207Z,13.79
2019-06-10T03:01:38.287Z,13.72
2019-06-10T03:02:37.210Z,13.61
2019-06-10T03:03:44.604Z,13.69
2019-06-10T03:04:37.924Z,13.60
2019-06-10T03:05:40.884Z,13.66
2019-06-10T03:06:40.357Z,13.57
2019-06-10T03:07:37.128Z,13.74
2019-06-10T03:08:37.167Z,13.74
2019-06-10T03:09:37.094Z,13.74
2019-06-10T03:10:37.486Z,13.72
2019-06-10T03:11:37.664Z,13.71
2019-06-10T03:12:37.044Z,13.79
2019-06-10T03:13:37.028Z,13.77
2019-06-10T03:14:37.009Z,13.81
2019-06-10T03:15:36.993Z,13.75
2019-06-10T03:16:36.976Z,13.69
2019-06-10T03:17:36.964Z,13.78
2019-06-10T03:18:36.947Z,13.74
2019-06-10T03:19:46.934Z,13.72
2019-06-10T03:20:36.911Z,13.81
2019-06-10T03:21:36.896Z,13.78
2019-06-10T03:22:36.877Z,13.75
2019-06-10T03:23:36.861Z,13.75
2019-06-10T03:24:36.849Z,13.72
2019-06-10T03:25:36.828Z,13.68
2019-06-10T03:26:36.811Z,13.75
2019-06-10T03:27:36.797Z,13.69
2019-06-10T03:28:36.777Z,13.81
2019-06-10T03:29:36.764Z,13.90
2019-06-10T03:30:48.012Z,13.92
2019-06-10T03:31:42.009Z,13.96
2019-06-10T03:32:40.913Z,13.94
2019-06-10T03:33:41.465Z,13.92
2019-06-10T03:34:41.994Z,13.82
2019-06-10T03:35:36.664Z,13.87
2019-06-10T03:36:36.647Z,13.87
2019-06-10T03:37:36.628Z,13.75
2019-06-10T03:38:37.178Z,13.74
2019-06-10T03:39:36.598Z,13.79
2019-06-10T03:40:36.579Z,13.78
2019-06-10T03:41:36.565Z,13.77
2019-06-10T03:42:36.547Z,13.72
2019-06-10T03:43:36.529Z,13.75
2019-06-10T03:44:36.515Z,13.89
2019-06-10T03:45:36.496Z,13.81
2019-06-10T03:46:36.479Z,13.87
2019-06-10T03:47:36.464Z,13.89
2019-06-10T03:48:36.448Z,13.92
2019-06-10T03:49:49.126Z,13.86
2019-06-10T03:50:36.416Z,13.86
2019-06-10T03:51:36.398Z,13.90
2019-06-10T03:52:36.380Z,13.87
2019-06-10T03:53:36.363Z,13.87
2019-06-10T03:54:36.348Z,13.89
2019-06-10T03:55:36.332Z,13.89
2019-06-10T03:56:36.316Z,13.99
2019-06-10T03:57:36.305Z,13.94
2019-06-10T03:58:36.281Z,13.87
2019-06-10T03:59:36.264Z,13.78
2019-06-10T04:00:37.055Z,13.78
2019-06-10T04:01:36.232Z,13.87
2019-06-10T04:02:36.217Z,13.94
2019-06-10T04:03:36.197Z,14.08
2019-06-10T04:04:36.181Z,14.08
2019-06-10T04:05:36.167Z,14.10
2019-06-10T04:06:36.150Z,14.17
2019-06-10T04:07:36.134Z,14.08
2019-06-10T04:08:36.116Z,14.18
2019-06-10T04:09:36.099Z,14.17
2019-06-10T04:10:36.084Z,14.17
2019-06-10T04:11:36.066Z,14.32
2019-06-10T04:12:36.052Z,14.19
2019-06-10T04:13:36.037Z,14.36
2019-06-10T04:14:36.017Z,14.33
2019-06-10T04:15:36.005Z,14.43
2019-06-10T04:16:35.986Z,14.40
2019-06-10T04:17:35.968Z,14.48
2019-06-10T04:18:35.955Z,14.45
2019-06-10T04:19:35.943Z,14.51
2019-06-10T04:20:35.923Z,14.54
2019-06-10T04:21:35.903Z,14.55
2019-06-10T04:22:35.887Z,14.48
2019-06-10T04:23:35.871Z,14.40
2019-06-10T04:24:35.856Z,14.54
2019-06-10T04:25:35.838Z,14.47
2019-06-10T04:26:35.823Z,14.58
2019-06-10T04:27:35.809Z,14.60
2019-06-10T04:28:35.790Z,14.63
2019-06-10T04:29:35.775Z,14.50
2019-06-10T04:30:35.758Z,14.60
2019-06-10T04:31:35.750Z,14.58
2019-06-10T04:32:35.726Z,14.69
2019-06-10T04:33:35.715Z,14.62
2019-06-10T04:34:35.697Z,14.62
2019-06-10T04:35:35.677Z,14.68
2019-06-10T04:36:35.665Z,14.68
2019-06-10T04:37:35.645Z,14.57
2019-06-10T04:38:35.634Z,14.65
2019-06-10T04:39:35.613Z,14.62
2019-06-10T04:40:35.597Z,14.70
2019-06-10T04:41:35.581Z,14.68
2019-06-10T04:42:35.564Z,14.62
2019-06-10T04:43:35.549Z,14.63
2019-06-10T04:44:35.533Z,14.58
2019-06-10T04:45:35.515Z,14.52
2019-06-10T04:46:35.501Z,14.51
2019-06-10T04:47:35.484Z,14.51
2019-06-10T04:48:35.470Z,14.58
2019-06-10T04:49:35.452Z,14.48
2019-06-10T04:50:42.559Z,14.60
2019-06-10T04:51:35.422Z,14.60
2019-06-10T04:52:35.409Z,14.58
2019-06-10T04:53:35.386Z,14.60
2019-06-10T04:54:35.371Z,14.57
2019-06-10T04:55:35.355Z,14.52
2019-06-10T04:56:35.337Z,14.58
2019-06-10T04:57:35.321Z,14.63
2019-06-10T04:58:35.305Z,14.60
2019-06-10T04:59:35.290Z,14.60
2019-06-10T05:00:35.273Z,14.65
2019-06-10T05:01:35.259Z,14.63
2019-06-10T05:02:35.241Z,14.70
2019-06-10T05:03:35.226Z,14.75
2019-06-10T05:04:35.215Z,14.82
2019-06-10T05:05:35.191Z,14.78
2019-06-10T05:06:35.174Z,14.82
2019-06-10T05:07:37.138Z,14.75
2019-06-10T05:08:35.145Z,14.81
2019-06-10T05:09:35.128Z,14.81
2019-06-10T05:10:35.114Z,14.84
2019-06-10T05:11:35.094Z,14.81
2019-06-10T05:12:35.079Z,14.91
2019-06-10T05:13:35.063Z,14.91
2019-06-10T05:14:35.047Z,14.99
2019-06-10T05:15:35.238Z,14.95
2019-06-10T05:16:35.821Z,15.00
2019-06-10T05:17:34.999Z,14.99
2019-06-10T05:18:34.980Z,15.04
2019-06-10T05:19:34.964Z,15.03
2019-06-10T05:20:50.989Z,14.99
2019-06-10T05:21:34.933Z,15.01
2019-06-10T05:22:34.917Z,14.99
2019-06-10T05:23:34.902Z,14.99
2019-06-10T05:24:34.888Z,15.00
2019-06-10T05:25:34.869Z,14.96
2019-06-10T05:26:34.854Z,15.00
2019-06-10T05:27:34.841Z,15.14
2019-06-10T05:28:34.822Z,15.06
2019-06-10T05:29:34.813Z,15.21
2019-06-10T05:30:34.789Z,15.18
2019-06-10T05:31:35.244Z,15.26
2019-06-10T05:32:34.760Z,15.14
2019-06-10T05:33:34.758Z,15.29
2019-06-10T05:34:34.919Z,15.31
2019-06-10T05:35:34.720Z,15.39
2019-06-10T05:36:34.913Z,15.29
2019-06-10T05:37:34.679Z,15.51
2019-06-10T05:38:35.305Z,15.50
2019-06-10T05:39:35.260Z,15.55
2019-06-10T05:40:34.634Z,15.67
2019-06-10T05:41:35.252Z,15.68
2019-06-10T05:42:36.123Z,15.71
2019-06-10T05:43:34.736Z,15.73
2019-06-10T05:44:34.739Z,15.68
2019-06-10T05:45:35.112Z,15.67
2019-06-10T05:46:35.025Z,15.65
2019-06-10T05:47:36.103Z,15.65
2019-06-10T05:48:35.142Z,15.54
2019-06-10T05:49:36.200Z,15.54
2019-06-10T05:50:34.961Z,15.59
2019-06-10T05:51:35.387Z,15.58
2019-06-10T05:52:35.180Z,15.68
2019-06-10T05:53:35.527Z,15.71
2019-06-10T05:54:35.514Z,15.76
2019-06-10T05:55:35.282Z,15.86
2019-06-10T05:56:35.719Z,15.89
2019-06-10T05:57:35.595Z,15.87
2019-06-10T05:58:35.938Z,15.91
2019-06-10T05:59:35.897Z,15.79
2019-06-10T06:00:35.506Z,15.97
2019-06-10T06:01:38.003Z,16.02
2019-06-10T06:02:35.458Z,16.12
2019-06-10T06:03:36.945Z,16.12
2019-06-10T06:04:35.921Z,16.21
2019-06-10T06:05:36.083Z,16.33
2019-06-10T06:06:35.397Z,16.35
2019-06-10T06:07:35.645Z,16.36
2019-06-10T06:08:35.481Z,16.41
2019-06-10T06:09:35.295Z,16.49
2019-06-10T06:10:36.017Z,16.68
2019-06-10T06:11:35.315Z,16.63
2019-06-10T06:12:35.736Z,16.79
2019-06-10T06:13:36.004Z,16.82
2019-06-10T06:14:35.942Z,16.91
2019-06-10T06:15:35.818Z,16.96
2019-06-10T06:16:36.124Z,17.01
2019-06-10T06:17:35.402Z,17.12
2019-06-10T06:18:36.338Z,17.31
2019-06-10T06:19:37.364Z,17.39
2019-06-10T06:20:35.896Z,17.37
2019-06-10T06:21:40.261Z,17.34
2019-06-10T06:22:35.489Z,17.24
2019-06-10T06:23:36.625Z,17.31
2019-06-10T06:24:35.557Z,17.31
2019-06-10T06:25:40.966Z,17.34
2019-06-10T06:26:37.639Z,17.39
2019-06-10T06:27:35.427Z,17.52
2019-06-10T06:28:35.969Z,17.63
2019-06-10T06:29:35.383Z,17.68
2019-06-10T06:30:36.042Z,17.86
2019-06-10T06:31:36.058Z,17.82
2019-06-10T06:32:36.321Z,17.83
2019-06-10T06:33:36.814Z,17.83
2019-06-10T06:34:35.839Z,18.03
2019-06-10T06:35:40.307Z,18.10
2019-06-10T06:36:35.374Z,18.18
2019-06-10T06:37:36.403Z,18.38
2019-06-10T06:38:35.361Z,18.51
2019-06-10T06:39:35.107Z,18.77
2019-06-10T06:40:35.446Z,19.02
2019-06-10T06:41:34.560Z,19.11
2019-06-10T06:42:35.120Z,19.16
2019-06-10T06:43:39.968Z,19.29
2019-06-10T06:44:37.375Z,19.37
2019-06-10T06:45:35.881Z,19.43
2019-06-10T06:46:36.578Z,19.67
2019-06-10T06:47:35.643Z,20.26
2019-06-10T06:48:37.018Z,20.35
2019-06-10T06:49:35.460Z,20.42
2019-06-10T06:50:35.795Z,20.57
2019-06-10T06:51:43.941Z,20.98
2019-06-10T06:53:04.709Z,21.43
2019-06-10T06:53:44.366Z,21.80
2019-06-10T06:54:35.765Z,22.21
2019-06-10T06:55:35.243Z,22.35
2019-06-10T06:56:36.099Z,22.47
2019-06-10T06:57:34.294Z,22.66
2019-06-10T06:58:35.395Z,22.57
2019-06-10T06:59:34.273Z,22.75
2019-06-10T07:00:48.939Z,22.72
2019-06-10T07:01:36.500Z,22.69
2019-06-10T07:02:34.567Z,22.60
2019-06-10T07:03:35.424Z,22.35
2019-06-10T07:04:34.307Z,22.26
2019-06-10T07:05:35.494Z,22.17
2019-06-10T07:06:34.558Z,22.18
2019-06-10T07:07:35.659Z,22.08
2019-06-10T07:08:36.171Z,21.98
2019-06-10T07:09:35.618Z,21.89
2019-06-10T07:10:34.652Z,21.75
2019-06-10T07:11:34.583Z,21.64
2019-06-10T07:12:34.703Z,21.60
2019-06-10T07:13:35.442Z,21.52
2019-06-10T07:14:36.822Z,21.36
2019-06-10T07:15:35.450Z,21.18
2019-06-10T07:16:34.592Z,20.99
2019-06-10T07:17:34.570Z,20.88
2019-06-10T07:18:38.900Z,20.77
2019-06-10T07:19:35.031Z,20.66
2019-06-10T07:20:36.296Z,20.60
2019-06-10T07:21:40.220Z,20.54
2019-06-10T07:22:35.296Z,20.63
2019-06-10T07:23:36.190Z,20.54
2019-06-10T07:24:36.012Z,20.51
2019-06-10T07:25:35.675Z,20.28
2019-06-10T07:26:35.728Z,20.26
2019-06-10T07:27:35.822Z,20.22
2019-06-10T07:28:35.813Z,20.16
2019-06-10T07:29:35.839Z,19.95
2019-06-10T07:30:36.931Z,19.80
2019-06-10T07:31:35.244Z,19.85
2019-06-10T07:32:35.856Z,19.79
2019-06-10T07:33:35.777Z,19.81
2019-06-10T07:34:36.386Z,19.61
2019-06-10T07:35:34.565Z,19.58
2019-06-10T07:36:35.294Z,19.61
2019-06-10T07:37:34.947Z,19.56
2019-06-10T07:38:35.216Z,19.61
2019-06-10T07:39:34.686Z,19.56
2019-06-10T07:40:34.430Z,19.58
2019-06-10T07:41:34.402Z,19.51
2019-06-10T07:42:34.516Z,19.55
2019-06-10T07:43:37.523Z,19.61
2019-06-10T07:44:34.317Z,19.69
2019-06-10T07:45:33.782Z,19.44
2019-06-10T07:46:33.595Z,19.55
2019-06-10T07:47:34.152Z,19.55
2019-06-10T07:48:34.840Z,19.73
2019-06-10T07:49:33.902Z,19.88
2019-06-10T07:50:33.419Z,19.88
2019-06-10T07:51:34.213Z,20.04
2019-06-10T07:52:34.359Z,20.10
2019-06-10T07:53:34.926Z,20.19
2019-06-10T07:54:34.210Z,20.32
2019-06-10T07:55:34.572Z,20.66
2019-06-10T07:56:37.229Z,20.88
2019-06-10T07:57:34.344Z,21.06
2019-06-10T07:58:35.138Z,21.07
2019-06-10T07:59:33.839Z,21.20
2019-06-10T08:00:33.678Z,21.33
2019-06-10T08:01:34.341Z,21.51
2019-06-10T08:02:34.071Z,21.75
2019-06-10T08:03:34.810Z,21.85
2019-06-10T08:04:33.598Z,21.99
2019-06-10T08:05:34.107Z,22.03
2019-06-10T08:06:33.488Z,21.93
2019-06-10T08:07:33.478Z,21.85
2019-06-10T08:08:33.099Z,21.98
2019-06-10T08:09:35.673Z,22.05
2019-06-10T08:10:32.884Z,22.05
2019-06-10T08:11:33.263Z,22.02
2019-06-10T08:12:32.780Z,21.82
2019-06-10T08:13:32.773Z,21.69
2019-06-10T08:14:33.029Z,21.83
2019-06-10T08:15:32.752Z,21.99
2019-06-10T08:16:32.834Z,22.02
2019-06-10T08:17:32.888Z,22.07
2019-06-10T08:18:46.832Z,22.03
2019-06-10T08:19:37.753Z,22.08
2019-06-10T08:20:32.706Z,22.17
2019-06-10T08:21:32.699Z,22.14
2019-06-10T08:22:37.440Z,22.24
2019-06-10T08:23:33.015Z,22.26
2019-06-10T08:24:33.044Z,22.39
2019-06-10T08:25:32.847Z,22.66
2019-06-10T08:26:32.650Z,22.78
2019-06-10T08:27:33.582Z,22.68
2019-06-10T08:28:33.323Z,22.62
2019-06-10T08:29:33.043Z,22.88
2019-06-10T08:30:32.939Z,22.70
2019-06-10T08:31:33.300Z,22.93
2019-06-10T08:32:33.519Z,23.53
2019-06-10T08:33:33.118Z,24.03
2019-06-10T08:34:33.093Z,24.48
2019-06-10T08:35:39.374Z,24.81
2019-06-10T08:36:33.329Z,24.91
2019-06-10T08:37:33.164Z,24.56
2019-06-10T08:38:33.168Z,24.64
2019-06-10T08:39:33.474Z,24.77
2019-06-10T08:40:32.706Z,24.96
2019-06-10T08:41:32.546Z,25.56
2019-06-10T08:42:32.553Z,25.83
2019-06-10T08:43:33.221Z,26.06
2019-06-10T08:44:32.875Z,26.37
2019-06-10T08:45:33.354Z,26.81
2019-06-10T08:46:32.888Z,26.99
2019-06-10T08:47:32.726Z,27.23
2019-06-10T08:48:32.893Z,27.33
2019-06-10T08:49:32.822Z,27.52
2019-06-10T08:50:33.742Z,27.58
2019-06-10T08:51:32.613Z,27.50
2019-06-10T08:52:49.364Z,27.37
2019-06-10T08:53:32.989Z,27.42
2019-06-10T08:54:32.566Z,27.76
2019-06-10T08:55:33.461Z,27.92
2019-06-10T08:56:32.907Z,28.10
2019-06-10T08:57:33.527Z,28.33
2019-06-10T08:58:33.112Z,28.48
2019-06-10T08:59:32.701Z,28.42
2019-06-10T09:00:33.660Z,28.41
2019-06-10T09:01:33.509Z,28.35
2019-06-10T09:02:33.434Z,28.41
2019-06-10T09:03:32.654Z,28.22
2019-06-10T09:04:33.128Z,28.00
2019-06-10T09:05:32.538Z,28.25
2019-06-10T09:06:32.909Z,28.47
2019-06-10T09:07:32.466Z,28.66
2019-06-10T09:08:32.705Z,28.54
2019-06-10T09:09:33.498Z,28.78
2019-06-10T09:10:33.909Z,29.08
2019-06-10T09:11:32.859Z,29.35
2019-06-10T09:12:36.333Z,29.45
2019-06-10T09:13:33.720Z,29.66
2019-06-10T09:14:32.738Z,29.89
2019-06-10T09:15:32.567Z,29.84
2019-06-10T09:16:33.029Z,29.91
2019-06-10T09:17:33.813Z,29.87
2019-06-10T09:18:33.678Z,29.90
2019-06-10T09:19:33.242Z,30.01
2019-06-10T09:20:33.121Z,30.18
2019-06-10T09:21:33.059Z,30.34
2019-06-10T09:22:32.778Z,29.99
2019-06-10T09:23:33.132Z,30.00
2019-06-10T09:24:32.790Z,30.00
2019-06-10T09:25:33.388Z,29.81
2019-06-10T09:26:33.677Z,29.63
2019-06-10T09:27:32.831Z,29.37
2019-06-10T09:28:32.854Z,29.29
2019-06-10T09:29:32.948Z,29.22
2019-06-10T09:30:33.393Z,29.63
2019-06-10T09:31:33.208Z,29.74
2019-06-10T09:32:32.578Z,29.75
2019-06-10T09:33:33.151Z,29.93
2019-06-10T09:34:33.007Z,30.00
2019-06-10T09:35:32.417Z,29.91
2019-06-10T09:36:32.580Z,30.09
2019-06-10T09:37:32.608Z,30.09
2019-06-10T09:38:33.457Z,29.62
2019-06-10T09:39:32.848Z,29.62
2019-06-10T09:40:33.820Z,29.59
2019-06-10T09:41:40.233Z,29.59
2019-06-10T09:42:33.322Z,29.67
2019-06-10T09:43:33.256Z,29.63
2019-06-10T09:44:33.378Z,29.54
2019-06-10T09:45:33.230Z,29.71
2019-06-10T09:46:33.222Z,30.16
2019-06-10T09:47:34.729Z,30.26
2019-06-10T09:48:33.550Z,30.18
2019-06-10T09:49:33.485Z,30.19
2019-06-10T09:50:33.378Z,30.31
2019-06-10T09:51:32.570Z,30.12
2019-06-10T09:52:32.898Z,29.99
2019-06-10T09:53:39.285Z,29.91
2019-06-10T09:54:33.587Z,29.62
2019-06-10T09:55:32.908Z,29.53
2019-06-10T09:56:33.115Z,29.62
2019-06-10T09:57:32.339Z,29.84
2019-06-10T09:58:32.981Z,30.12
2019-06-10T09:59:32.400Z,30.08
2019-06-10T10:00:33.207Z,30.21
2019-06-10T10:01:32.759Z,30.22
2019-06-10T10:02:33.174Z,30.19
2019-06-10T10:03:33.176Z,30.05
2019-06-10T10:04:32.845Z,29.82
2019-06-10T10:05:33.799Z,29.44
2019-06-10T10:06:32.705Z,29.15
2019-06-10T10:07:32.511Z,28.91
2019-06-10T10:08:32.713Z,28.72
2019-06-10T10:09:36.780Z,28.81
2019-06-10T10:10:32.747Z,29.15
2019-06-10T10:11:32.295Z,29.29
2019-06-10T10:12:32.773Z,29.47
2019-06-10T10:13:35.329Z,29.67
2019-06-10T10:14:33.463Z,29.75
2019-06-10T10:15:34.506Z,29.71
2019-06-10T10:16:33.886Z,29.64
2019-06-10T10:17:33.379Z,29.67
2019-06-10T10:18:33.475Z,29.59
2019-06-10T10:19:32.268Z,29.62
2019-06-10T10:20:34.090Z,29.44
2019-06-10T10:21:32.263Z,29.39
2019-06-10T10:22:34.060Z,29.42
2019-06-10T10:23:48.378Z,29.16
2019-06-10T10:24:34.027Z,29.17
2019-06-10T10:25:33.253Z,29.01
2019-06-10T10:26:32.243Z,29.10
2019-06-10T10:27:32.442Z,29.20
2019-06-10T10:28:33.396Z,29.08
2019-06-10T10:29:32.865Z,29.11
2019-06-10T10:30:33.228Z,28.94
2019-06-10T10:31:32.488Z,28.66
2019-06-10T10:32:33.436Z,28.77
2019-06-10T10:33:33.366Z,29.04
2019-06-10T10:34:33.319Z,29.23
2019-06-10T10:35:32.650Z,29.27
2019-06-10T10:36:33.573Z,29.72
2019-06-10T10:37:32.748Z,29.84
2019-06-10T10:38:34.609Z,29.78
2019-06-10T10:39:32.733Z,29.32
2019-06-10T10:40:32.740Z,29.04
2019-06-10T10:41:32.384Z,28.75
2019-06-10T10:42:44.654Z,28.65
2019-06-10T10:43:34.055Z,28.51
2019-06-10T10:44:32.179Z,28.18
2019-06-10T10:45:32.182Z,28.08
2019-06-10T10:46:32.608Z,28.13
2019-06-10T10:47:33.591Z,27.93
2019-06-10T10:48:33.517Z,27.78
2019-06-10T10:49:32.587Z,27.78
2019-06-10T10:50:34.155Z,27.89
2019-06-10T10:51:32.678Z,27.99
2019-06-10T10:52:33.068Z,28.23
2019-06-10T10:53:32.783Z,28.26
2019-06-10T10:54:36.041Z,28.26
2019-06-10T10:55:33.345Z,28.26
2019-06-10T10:56:33.913Z,27.90
2019-06-10T10:57:33.040Z,28.03
2019-06-10T10:58:32.511Z,27.96
2019-06-10T10:59:33.231Z,28.08
2019-06-10T11:00:37.343Z,28.30
2019-06-10T11:01:33.370Z,28.25
2019-06-10T11:02:32.298Z,28.50
2019-06-10T11:03:33.573Z,28.48
2019-06-10T11:04:32.923Z,28.55
2019-06-10T11:05:33.266Z,27.55
2019-06-10T11:06:32.379Z,27.29
2019-06-10T11:07:33.943Z,27.25
2019-06-10T11:08:33.219Z,26.96
2019-06-10T11:09:33.051Z,27.00
2019-06-10T11:10:32.974Z,26.84
2019-06-10T11:11:33.331Z,26.83
2019-06-10T11:12:33.197Z,27.06
2019-06-10T11:13:33.311Z,27.20
2019-06-10T11:14:33.546Z,27.42
2019-06-10T11:15:33.789Z,27.68
2019-06-10T11:16:33.082Z,27.95
2019-06-10T11:17:33.624Z,28.25
2019-06-10T11:18:33.913Z,28.27
2019-06-10T11:19:32.379Z,28.32
2019-06-10T11:20:33.639Z,28.59
2019-06-10T11:21:33.066Z,28.79
2019-06-10T11:22:32.901Z,29.10
2019-06-10T11:23:33.731Z,29.16
2019-06-10T11:24:37.666Z,28.82
2019-06-10T11:25:33.217Z,28.54
2019-06-10T11:26:32.947Z,28.00
2019-06-10T11:27:33.141Z,28.22
2019-06-10T11:28:32.267Z,28.26
2019-06-10T11:29:32.887Z,28.60
2019-06-10T11:30:32.473Z,28.79
2019-06-10T11:31:32.843Z,28.57
2019-06-10T11:32:32.746Z,28.27
2019-06-10T11:33:32.827Z,28.29
2019-06-10T11:34:33.240Z,28.27
2019-06-10T11:35:31.918Z,28.36
2019-06-10T11:36:32.706Z,28.42
2019-06-10T11:37:31.907Z,28.73
2019-06-10T11:38:32.879Z,28.94
2019-06-10T11:39:33.308Z,28.66
2019-06-10T11:40:34.199Z,28.54
2019-06-10T11:41:32.490Z,28.60
2019-06-10T11:42:33.453Z,28.65
2019-06-10T11:43:33.190Z,28.84
2019-06-10T11:44:33.908Z,29.13
2019-06-10T11:45:32.864Z,29.17
2019-06-10T11:46:32.617Z,29.07
2019-06-10T11:47:33.025Z,29.26
2019-06-10T11:48:32.795Z,29.67
2019-06-10T11:49:31.886Z,29.74
2019-06-10T11:50:33.409Z,29.82
2019-06-10T11:51:31.849Z,29.81
2019-06-10T11:52:33.512Z,29.90
2019-06-10T11:53:34.150Z,29.93
2019-06-10T11:54:34.004Z,29.89
2019-06-10T11:55:33.330Z,30.12
2019-06-10T11:56:33.663Z,30.08
2019-06-10T11:57:32.925Z,30.18
2019-06-10T11:58:33.256Z,30.19
2019-06-10T11:59:32.730Z,30.34
2019-06-10T12:00:33.112Z,30.59
2019-06-10T12:01:31.809Z,30.51
2019-06-10T12:02:32.943Z,30.71
2019-06-10T12:03:31.801Z,30.73
2019-06-10T12:04:31.800Z,30.49
2019-06-10T12:05:32.679Z,30.40
2019-06-10T12:06:33.998Z,30.65
2019-06-10T12:07:33.203Z,30.18
2019-06-10T12:08:32.909Z,30.53
2019-06-10T12:09:33.396Z,30.56
2019-06-10T12:10:33.029Z,30.76
2019-06-10T12:11:34.218Z,31.12
2019-06-10T12:12:33.930Z,31.28
2019-06-10T12:13:34.135Z,31.52
2019-06-10T12:14:33.673Z,31.37
2019-06-10T12:15:45.601Z,31.39
2019-06-10T12:17:15.575Z,31.36
2019-06-10T12:17:43.142Z,31.17
2019-06-10T12:18:33.289Z,31.12
2019-06-10T12:19:34.033Z,31.20
2019-06-10T12:20:33.438Z,31.39
2019-06-10T12:21:33.094Z,31.39
2019-06-10T12:22:33.083Z,31.46
2019-06-10T12:23:33.620Z,31.73
2019-06-10T12:24:33.167Z,31.87
2019-06-10T12:25:38.784Z,31.99
2019-06-10T12:26:33.408Z,32.18
2019-06-10T12:27:32.814Z,32.47
2019-06-10T12:28:32.681Z,32.62
2019-06-10T12:29:31.726Z,32.99
2019-06-10T12:30:34.422Z,33.22
2019-06-10T12:31:33.919Z,32.92
2019-06-10T12:32:33.625Z,32.62
2019-06-10T12:33:33.589Z,32.18
2019-06-10T12:34:33.302Z,32.12
2019-06-10T12:35:33.307Z,32.39
2019-06-10T12:36:32.799Z,32.33
2019-06-10T12:37:33.622Z,32.06
2019-06-10T12:38:33.433Z,31.88
2019-06-10T12:39:31.701Z,31.71
2019-06-10T12:40:31.701Z,31.73
2019-06-10T12:41:33.177Z,31.93
2019-06-10T12:42:32.860Z,31.85
2019-06-10T12:43:32.579Z,32.05
2019-06-10T12:44:33.731Z,32.27
2019-06-10T12:45:32.619Z,32.02
2019-06-10T12:46:32.755Z,32.12
2019-06-10T12:47:33.268Z,32.44
2019-06-10T12:48:34.050Z,32.49
2019-06-10T12:49:32.026Z,32.83
2019-06-10T12:50:31.675Z,32.86
2019-06-10T12:51:32.713Z,33.03
2019-06-10T12:52:32.443Z,33.41